createdAt,value
2023-08-18T00:01:17.681Z,22.68
2023-08-18T00:03:46.856Z,22.68
2023-08-18T00:06:16.048Z,22.66
2023-08-18T00:08:45.810Z,22.64
2023-08-18T00:11:14.872Z,22.62
2023-08-18T00:13:41.437Z,22.60
2023-08-18T00:16:12.679Z,22.58
2023-08-18T00:18:41.628Z,22.59
2023-08-18T00:21:10.681Z,22.57
2023-08-18T00:23:37.513Z,22.58
2023-08-18T00:26:04.658Z,22.56
2023-08-18T00:28:33.859Z,22.54
2023-08-18T00:31:00.549Z,22.52
2023-08-18T00:33:29.263Z,22.52
2023-08-18T00:35:55.867Z,22.49
2023-08-18T00:38:22.438Z,22.46
2023-08-18T00:40:49.040Z,22.46
2023-08-18T00:43:15.665Z,22.44
2023-08-18T00:45:45.342Z,22.42
2023-08-18T00:48:12.089Z,22.40
2023-08-18T00:50:38.909Z,22.40
2023-08-18T00:53:08.026Z,22.39
2023-08-18T00:55:34.754Z,22.36
2023-08-18T00:58:03.311Z,22.35
2023-08-18T01:00:30.670Z,22.35
2023-08-18T01:02:58.050Z,22.33
2023-08-18T01:05:26.812Z,22.31
2023-08-18T01:07:53.400Z,22.28
2023-08-18T01:10:23.155Z,22.27
2023-08-18T01:12:59.005Z,22.26
2023-08-18T01:15:34.489Z,22.24
2023-08-18T01:18:02.625Z,22.24
2023-08-18T01:20:31.905Z,22.22
2023-08-18T01:22:58.915Z,22.21
2023-08-18T01:25:28.892Z,22.20
2023-08-18T01:27:57.744Z,22.19
2023-08-18T01:30:35.217Z,22.17
2023-08-18T01:33:14.579Z,22.15
2023-08-18T01:35:45.335Z,22.14
2023-08-18T01:38:14.496Z,22.14
2023-08-18T01:40:45.745Z,22.11
2023-08-18T01:43:12.352Z,22.10
2023-08-18T01:45:41.185Z,22.09
2023-08-18T01:48:10.481Z,22.09
2023-08-18T01:50:39.363Z,22.08
2023-08-18T01:53:08.315Z,22.07
2023-08-18T01:55:34.925Z,22.06
2023-08-18T01:58:04.491Z,22.04
2023-08-18T02:00:31.074Z,22.02
2023-08-18T02:02:59.979Z,22.00
2023-08-18T02:05:26.766Z,21.99
2023-08-18T02:07:56.016Z,21.96
2023-08-18T02:10:22.643Z,21.95
2023-08-18T02:12:51.499Z,21.93
2023-08-18T02:15:20.662Z,21.93
2023-08-18T02:17:49.595Z,21.91
2023-08-18T02:20:16.321Z,21.89
2023-08-18T02:22:42.927Z,21.87
2023-08-18T02:25:09.901Z,21.87
2023-08-18T02:27:36.531Z,21.85
2023-08-18T02:30:04.758Z,21.84
2023-08-18T02:32:31.332Z,21.84
2023-08-18T02:35:00.934Z,21.81
2023-08-18T02:37:27.896Z,21.80
2023-08-18T02:39:57.116Z,21.79
2023-08-18T02:42:23.691Z,21.79
2023-08-18T02:44:53.414Z,21.77
2023-08-18T02:47:20.002Z,21.76
2023-08-18T02:49:48.870Z,21.74
2023-08-18T02:52:15.579Z,21.74
2023-08-18T02:54:45.112Z,21.73
2023-08-18T02:57:14.224Z,21.71
2023-08-18T02:59:40.773Z,21.71
2023-08-18T03:02:07.506Z,21.70
2023-08-18T03:04:37.126Z,21.68
2023-08-18T03:07:03.716Z,21.67
2023-08-18T03:09:32.670Z,21.68
2023-08-18T03:11:59.226Z,21.70
2023-08-18T03:14:28.239Z,21.69
2023-08-18T03:16:54.810Z,21.68
2023-08-18T03:19:21.456Z,21.67
2023-08-18T03:21:48.085Z,21.65
2023-08-18T03:24:17.038Z,21.63
2023-08-18T03:26:44.149Z,21.63
2023-08-18T03:29:10.701Z,21.63
2023-08-18T03:31:37.416Z,21.60
2023-08-18T03:34:06.802Z,21.61
2023-08-18T03:36:33.420Z,21.60
2023-08-18T03:39:02.505Z,21.58
2023-08-18T03:41:30.183Z,21.59
2023-08-18T03:43:59.684Z,21.58
2023-08-18T03:46:29.801Z,21.55
2023-08-18T03:48:59.330Z,21.55
2023-08-18T03:51:26.685Z,21.54
2023-08-18T03:53:55.623Z,21.52
2023-08-18T03:56:22.238Z,21.52
2023-08-18T03:58:48.905Z,21.50
2023-08-18T04:01:15.699Z,21.50
2023-08-18T04:03:43.738Z,21.49
2023-08-18T04:06:14.059Z,21.47
2023-08-18T04:08:45.249Z,21.47
2023-08-18T04:11:14.671Z,21.47
2023-08-18T04:13:44.795Z,21.47
2023-08-18T04:16:11.507Z,21.45
2023-08-18T04:18:38.142Z,21.44
2023-08-18T04:21:04.767Z,21.43
2023-08-18T04:23:31.407Z,21.43
2023-08-18T04:25:58.172Z,21.42
2023-08-18T04:28:24.845Z,21.41
2023-08-18T04:30:51.431Z,21.40
2023-08-18T04:33:18.061Z,21.40
2023-08-18T04:35:44.693Z,21.39
2023-08-18T04:38:15.198Z,21.38
2023-08-18T04:40:44.066Z,21.38
2023-08-18T04:43:10.696Z,21.37
2023-08-18T04:45:42.068Z,21.36
2023-08-18T04:48:09.014Z,21.36
2023-08-18T04:50:38.137Z,21.35
2023-08-18T04:53:04.973Z,21.36
2023-08-18T04:55:33.951Z,21.34
2023-08-18T04:58:03.792Z,21.34
2023-08-18T05:00:30.821Z,21.34
2023-08-18T05:02:59.768Z,21.33
2023-08-18T05:05:28.579Z,21.33
2023-08-18T05:07:55.173Z,21.33
2023-08-18T05:10:22.111Z,21.33
2023-08-18T05:12:51.934Z,21.31
2023-08-18T05:15:18.847Z,21.30
2023-08-18T05:17:45.505Z,21.31
2023-08-18T05:20:12.591Z,21.31
2023-08-18T05:22:42.166Z,21.30
2023-08-18T05:25:09.462Z,21.29
2023-08-18T05:27:36.342Z,21.28
2023-08-18T05:30:04.889Z,21.28
2023-08-18T05:32:32.103Z,21.26
2023-08-18T05:35:01.438Z,21.25
2023-08-18T05:37:30.330Z,21.25
2023-08-18T05:39:57.692Z,21.24
2023-08-18T05:42:24.319Z,21.23
2023-08-18T05:44:50.965Z,21.22
2023-08-18T05:47:17.624Z,21.20
2023-08-18T05:49:44.236Z,21.20
2023-08-18T05:52:13.195Z,21.21
2023-08-18T05:54:39.798Z,21.21
2023-08-18T05:57:06.445Z,21.21
2023-08-18T05:59:33.386Z,21.20
2023-08-18T06:02:00.123Z,21.19
2023-08-18T06:04:26.715Z,21.17
2023-08-18T06:06:53.436Z,21.18
2023-08-18T06:09:23.068Z,21.18
2023-08-18T06:11:49.716Z,21.18
2023-08-18T06:14:18.608Z,21.17
2023-08-18T06:16:45.228Z,21.17
2023-08-18T06:19:13.463Z,21.16
2023-08-18T06:21:40.120Z,21.14
2023-08-18T06:24:07.355Z,21.15
2023-08-18T06:26:33.969Z,21.16
2023-08-18T06:29:02.730Z,21.15
2023-08-18T06:31:29.795Z,21.16
2023-08-18T06:33:56.880Z,21.15
2023-08-18T06:36:23.546Z,21.15
2023-08-18T06:38:50.165Z,21.15
2023-08-18T06:41:16.783Z,21.15
2023-08-18T06:43:45.622Z,21.14
2023-08-18T06:46:12.349Z,21.00
2023-08-18T06:48:41.323Z,20.85
2023-08-18T06:51:08.009Z,20.67
2023-08-18T06:53:40.288Z,20.55
2023-08-18T06:56:07.289Z,20.50
2023-08-18T06:58:36.253Z,20.40
2023-08-18T07:01:03.013Z,20.33
2023-08-18T07:03:29.770Z,20.33
2023-08-18T07:05:59.286Z,20.29
2023-08-18T07:08:26.353Z,20.24
2023-08-18T07:10:53.057Z,20.20
2023-08-18T07:13:21.606Z,20.12
2023-08-18T07:15:48.309Z,20.11
2023-08-18T07:18:15.062Z,20.04
2023-08-18T07:20:46.621Z,19.98
2023-08-18T07:23:13.275Z,19.94
2023-08-18T07:25:43.001Z,19.94
2023-08-18T07:28:09.691Z,19.95
2023-08-18T07:30:36.358Z,19.93
2023-08-18T07:33:03.134Z,19.94
2023-08-18T07:35:31.460Z,19.93
2023-08-18T07:37:58.325Z,19.89
2023-08-18T07:40:24.965Z,19.86
2023-08-18T07:42:54.880Z,19.86
2023-08-18T07:45:23.726Z,19.82
2023-08-18T07:47:50.507Z,19.78
2023-08-18T07:50:17.290Z,19.80
2023-08-18T07:52:44.010Z,19.85
2023-08-18T07:55:13.343Z,19.87
2023-08-18T07:57:42.308Z,19.92
2023-08-18T08:00:20.036Z,19.98
2023-08-18T08:02:49.726Z,19.99
2023-08-18T08:05:21.383Z,20.07
2023-08-18T08:07:49.268Z,20.11
2023-08-18T08:10:21.166Z,20.16
2023-08-18T08:12:51.065Z,20.24
2023-08-18T08:15:18.642Z,20.24
2023-08-18T08:17:50.470Z,20.27
2023-08-18T08:20:19.698Z,20.22
2023-08-18T08:22:50.233Z,20.18
2023-08-18T08:25:19.936Z,20.18
2023-08-18T08:27:46.912Z,20.17
2023-08-18T08:32:46.342Z,20.28
2023-08-18T08:35:13.000Z,20.29
2023-08-18T08:37:42.494Z,20.32
2023-08-18T08:40:19.521Z,20.36
2023-08-18T08:42:49.920Z,20.35
2023-08-18T08:45:18.855Z,20.33
2023-08-18T08:47:45.944Z,20.26
2023-08-18T08:50:14.868Z,20.20
2023-08-18T08:52:45.888Z,20.22
2023-08-18T08:55:17.886Z,20.25
2023-08-18T08:57:44.587Z,20.30
2023-08-18T09:00:15.815Z,20.29
2023-08-18T09:02:44.818Z,20.25
2023-08-18T09:05:12.198Z,20.19
2023-08-18T09:07:38.978Z,20.24
2023-08-18T09:10:06.806Z,20.32
2023-08-18T09:12:40.779Z,20.32
2023-08-18T09:15:13.297Z,20.42
2023-08-18T09:17:45.040Z,20.49
2023-08-18T09:20:16.450Z,20.55
2023-08-18T09:22:46.230Z,20.63
2023-08-18T09:25:14.514Z,20.68
2023-08-18T09:27:41.266Z,20.70
2023-08-18T09:30:10.973Z,20.69
2023-08-18T09:32:40.171Z,20.65
2023-08-18T09:35:14.008Z,20.67
2023-08-18T09:37:40.683Z,20.71
2023-08-18T09:40:08.553Z,20.75
2023-08-18T09:42:35.313Z,20.80
2023-08-18T09:45:04.807Z,20.83
2023-08-18T09:47:32.102Z,20.85
2023-08-18T09:50:02.517Z,20.92
2023-08-18T09:52:35.015Z,21.01
2023-08-18T09:55:12.365Z,21.01
2023-08-18T09:57:53.320Z,21.02
2023-08-18T10:00:22.344Z,21.03
2023-08-18T10:02:52.852Z,21.12
2023-08-18T10:05:25.570Z,21.18
2023-08-18T10:07:55.511Z,21.20
2023-08-18T10:10:23.104Z,21.23
2023-08-18T10:12:52.134Z,21.25
2023-08-18T10:15:19.815Z,21.28
2023-08-18T10:17:46.573Z,21.31
2023-08-18T10:20:15.964Z,21.34
2023-08-18T10:22:45.063Z,21.34
2023-08-18T10:25:24.553Z,21.42
2023-08-18T10:27:51.241Z,21.44
2023-08-18T10:30:25.528Z,21.48
2023-08-18T10:32:59.033Z,21.45
2023-08-18T10:35:28.358Z,21.42
2023-08-18T10:38:00.658Z,21.48
2023-08-18T10:40:31.247Z,21.53
2023-08-18T10:43:07.317Z,21.57
2023-08-18T10:45:34.642Z,21.61
2023-08-18T10:48:09.132Z,21.66
2023-08-18T10:50:44.067Z,21.66
2023-08-18T10:53:13.177Z,21.68
2023-08-18T10:55:44.103Z,21.71
2023-08-18T10:58:11.072Z,21.73
2023-08-18T11:00:38.550Z,21.76
2023-08-18T11:03:07.515Z,21.78
2023-08-18T11:05:35.148Z,21.77
2023-08-18T11:08:05.251Z,21.76
2023-08-18T11:10:35.045Z,21.79
2023-08-18T11:13:01.700Z,21.81
2023-08-18T11:15:28.606Z,21.85
2023-08-18T11:17:57.751Z,21.91
2023-08-18T11:20:24.509Z,21.95
2023-08-18T11:22:54.707Z,21.97
2023-08-18T11:25:24.508Z,22.01
2023-08-18T11:27:57.581Z,22.05
2023-08-18T11:30:24.315Z,22.10
2023-08-18T11:32:51.229Z,22.11
2023-08-18T11:35:20.388Z,22.13
2023-08-18T11:37:54.133Z,22.18
2023-08-18T11:40:23.593Z,22.23
2023-08-18T11:42:51.946Z,22.29
2023-08-18T11:45:26.345Z,22.32
2023-08-18T11:48:05.451Z,22.38
2023-08-18T11:50:36.863Z,22.40
2023-08-18T11:53:05.244Z,22.41
2023-08-18T11:55:36.165Z,22.51
2023-08-18T11:58:09.678Z,22.62
2023-08-18T12:00:37.852Z,22.74
2023-08-18T12:03:21.368Z,22.84
2023-08-18T12:05:50.610Z,22.82
2023-08-18T12:08:17.299Z,22.83
2023-08-18T12:10:49.155Z,22.92
2023-08-18T12:13:18.182Z,22.96
2023-08-18T12:15:44.901Z,23.09
2023-08-18T12:18:14.023Z,23.16
2023-08-18T12:20:40.672Z,23.27
2023-08-18T12:23:07.858Z,23.33
2023-08-18T12:25:34.645Z,23.33
2023-08-18T12:28:01.298Z,23.32
2023-08-18T12:30:30.195Z,23.26
2023-08-18T12:32:56.905Z,23.26
2023-08-18T12:35:26.425Z,23.33
2023-08-18T12:37:53.853Z,23.43
2023-08-18T12:40:20.631Z,23.47
2023-08-18T12:42:47.278Z,23.45
2023-08-18T12:45:14.217Z,23.62
2023-08-18T12:47:41.172Z,23.82
2023-08-18T12:50:08.341Z,24.05
2023-08-18T12:52:37.637Z,24.15
2023-08-18T12:55:07.408Z,24.33
2023-08-18T12:57:37.548Z,24.53
2023-08-18T13:00:04.591Z,24.80
2023-08-18T13:02:31.404Z,25.01
2023-08-18T13:05:02.058Z,25.11
2023-08-18T13:07:28.937Z,25.15
2023-08-18T13:09:58.166Z,25.25
2023-08-18T13:12:24.898Z,25.43
2023-08-18T13:14:51.602Z,25.58
2023-08-18T13:17:18.315Z,25.65
2023-08-18T13:19:48.538Z,25.74
2023-08-18T13:22:16.447Z,25.82
2023-08-18T13:24:47.850Z,25.90
2023-08-18T13:27:14.802Z,25.85
2023-08-18T13:32:14.545Z,25.91
2023-08-18T13:34:41.343Z,26.02
2023-08-18T13:37:08.003Z,26.15
2023-08-18T13:39:36.888Z,26.14
2023-08-18T13:42:05.883Z,26.15
2023-08-18T13:44:32.555Z,26.37
2023-08-18T13:46:59.259Z,26.50
2023-08-18T13:49:27.744Z,26.52
2023-08-18T13:51:54.524Z,26.70
2023-08-18T13:54:21.146Z,26.87
2023-08-18T13:56:47.841Z,26.82
2023-08-18T13:59:14.680Z,26.87
2023-08-18T14:01:41.420Z,26.76
2023-08-18T14:04:08.137Z,26.43
2023-08-18T14:06:37.216Z,26.29
2023-08-18T14:09:06.257Z,26.19
2023-08-18T14:11:36.363Z,26.11
2023-08-18T14:14:03.067Z,25.97
2023-08-18T14:16:29.872Z,25.85
2023-08-18T14:18:56.664Z,25.70
2023-08-18T14:21:23.510Z,25.57
2023-08-18T14:23:50.268Z,25.53
2023-08-18T14:26:17.092Z,25.47
2023-08-18T14:28:43.805Z,25.42
2023-08-18T14:31:11.398Z,25.37
2023-08-18T14:33:46.244Z,25.44
2023-08-18T14:36:15.802Z,25.49
2023-08-18T14:38:44.991Z,25.50
2023-08-18T14:41:11.995Z,25.46
2023-08-18T14:43:38.671Z,25.36
2023-08-18T14:46:09.178Z,25.28
2023-08-18T14:48:39.311Z,25.20
2023-08-18T14:51:08.295Z,25.13
2023-08-18T14:53:37.692Z,25.07
2023-08-18T14:56:04.950Z,25.07
2023-08-18T14:58:32.218Z,25.10
2023-08-18T15:00:59.661Z,25.12
2023-08-18T15:03:28.825Z,25.09
2023-08-18T15:05:59.830Z,25.03
2023-08-18T15:08:26.558Z,24.95
2023-08-18T15:10:55.728Z,24.94
2023-08-18T15:13:22.368Z,24.98
2023-08-18T15:15:49.132Z,24.98
2023-08-18T15:18:15.852Z,24.93
2023-08-18T15:20:44.914Z,24.99
2023-08-18T15:23:13.747Z,25.02
2023-08-18T15:25:40.431Z,25.13
2023-08-18T15:28:07.166Z,25.17
2023-08-18T15:30:33.882Z,25.24
2023-08-18T15:33:03.279Z,25.37
2023-08-18T15:35:33.045Z,25.51
2023-08-18T15:38:02.288Z,25.68
2023-08-18T15:40:28.998Z,25.80
2023-08-18T15:42:55.600Z,25.94
2023-08-18T15:45:22.352Z,26.00
2023-08-18T15:47:49.979Z,26.06
2023-08-18T15:50:19.782Z,25.94
2023-08-18T15:52:48.737Z,25.84
2023-08-18T15:55:20.216Z,25.74
2023-08-18T15:57:46.935Z,25.59
2023-08-18T16:00:16.812Z,25.48
2023-08-18T16:02:43.526Z,25.33
2023-08-18T16:05:10.391Z,25.30
2023-08-18T16:07:37.068Z,25.24
2023-08-18T16:10:04.453Z,25.18
2023-08-18T16:12:31.196Z,25.14
2023-08-18T16:15:27.496Z,25.07
2023-08-18T16:17:49.819Z,25.04
2023-08-18T16:20:19.630Z,24.97
2023-08-18T16:22:46.344Z,24.94
2023-08-18T16:25:13.058Z,24.84
2023-08-18T16:27:42.192Z,24.76
2023-08-18T16:30:09.278Z,24.71
2023-08-18T16:32:38.462Z,24.70
2023-08-18T16:35:05.422Z,24.66
2023-08-18T16:37:33.206Z,24.63
2023-08-18T16:40:00.619Z,24.60
2023-08-18T16:42:30.879Z,24.54
2023-08-18T16:44:57.604Z,24.51
2023-08-18T16:47:26.389Z,24.51
2023-08-18T16:49:56.039Z,24.52
2023-08-18T16:52:25.131Z,24.50
2023-08-18T16:54:54.749Z,24.44
2023-08-18T16:57:23.598Z,24.41
2023-08-18T16:59:50.283Z,24.37
2023-08-18T17:02:16.951Z,24.34
2023-08-18T17:04:43.593Z,24.33
2023-08-18T17:07:12.039Z,24.30
2023-08-18T17:09:40.900Z,24.31
2023-08-18T17:12:11.235Z,24.29
2023-08-18T17:14:38.017Z,24.24
2023-08-18T17:17:04.795Z,24.21
2023-08-18T17:19:31.492Z,24.17
2023-08-18T17:21:58.144Z,24.17
2023-08-18T17:24:27.799Z,24.15
2023-08-18T17:26:54.525Z,24.13
2023-08-18T17:29:23.483Z,24.13
2023-08-18T17:31:53.509Z,24.12
2023-08-18T17:34:20.185Z,24.10
2023-08-18T17:36:46.935Z,24.07
2023-08-18T17:39:16.046Z,24.01
2023-08-18T17:41:42.970Z,23.97
2023-08-18T17:44:10.208Z,23.95
2023-08-18T17:46:38.254Z,23.91
2023-08-18T17:49:07.727Z,23.90
2023-08-18T17:51:36.669Z,23.86
2023-08-18T17:54:05.694Z,23.86
2023-08-18T17:56:32.295Z,23.90
2023-08-18T17:58:58.955Z,23.97
2023-08-18T18:01:25.577Z,24.02
2023-08-18T18:03:52.252Z,24.05
2023-08-18T18:06:19.375Z,24.06
2023-08-18T18:08:46.029Z,24.06
2023-08-18T18:11:12.679Z,24.07
2023-08-18T18:13:42.173Z,24.06
2023-08-18T18:16:10.954Z,24.05
2023-08-18T18:18:41.219Z,24.04
2023-08-18T18:21:08.111Z,24.03
2023-08-18T18:23:34.809Z,24.01
2023-08-18T18:26:01.553Z,24.00
2023-08-18T18:28:28.187Z,23.99
2023-08-18T18:30:54.808Z,23.99
2023-08-18T18:33:21.464Z,24.01
2023-08-18T18:35:48.108Z,24.03
2023-08-18T18:38:14.704Z,24.02
2023-08-18T18:40:41.407Z,24.03
2023-08-18T18:43:11.032Z,24.03
2023-08-18T18:45:37.644Z,24.04
2023-08-18T18:48:06.901Z,24.03
2023-08-18T18:50:36.387Z,24.04
2023-08-18T18:53:03.978Z,24.04
2023-08-18T18:55:31.976Z,24.01
2023-08-18T18:57:58.774Z,24.00
2023-08-18T19:00:31.373Z,23.99
2023-08-18T19:02:59.892Z,23.97
2023-08-18T19:05:29.617Z,23.97
2023-08-18T19:07:56.282Z,23.96
2023-08-18T19:10:25.205Z,23.95
2023-08-18T19:12:51.984Z,23.93
2023-08-18T19:15:18.607Z,24.02
2023-08-18T19:17:49.408Z,24.05
2023-08-18T19:20:29.105Z,24.02
2023-08-18T19:22:58.573Z,23.99
2023-08-18T19:25:28.585Z,23.96
2023-08-18T19:27:55.707Z,23.95
2023-08-18T19:30:22.488Z,23.92
2023-08-18T19:32:52.853Z,23.90
2023-08-18T19:35:21.980Z,23.89
2023-08-18T19:37:50.857Z,23.88
2023-08-18T19:40:18.214Z,23.87
2023-08-18T19:42:44.855Z,23.86
2023-08-18T19:45:14.776Z,23.86
2023-08-18T19:47:41.457Z,23.85
2023-08-18T19:50:10.681Z,23.83
2023-08-18T19:52:37.415Z,23.81
2023-08-18T19:55:04.298Z,23.78
2023-08-18T19:57:32.022Z,23.75
2023-08-18T20:00:10.557Z,23.73
2023-08-18T20:02:42.048Z,23.72
2023-08-18T20:05:09.794Z,23.69
2023-08-18T20:07:39.244Z,23.67
2023-08-18T20:10:06.496Z,23.63
2023-08-18T20:12:34.556Z,23.60
2023-08-18T20:15:08.019Z,23.58
2023-08-18T20:17:40.251Z,23.57
2023-08-18T20:20:12.787Z,23.55
2023-08-18T20:22:39.579Z,23.53
2023-08-18T20:25:12.932Z,23.51
2023-08-18T20:27:39.682Z,23.50
2023-08-18T20:30:07.001Z,23.48
2023-08-18T20:32:37.609Z,23.46
2023-08-18T20:35:05.709Z,23.45
2023-08-18T20:37:32.357Z,23.43
2023-08-18T20:39:59.072Z,23.41
2023-08-18T20:42:26.358Z,23.42
2023-08-18T20:44:55.681Z,23.41
2023-08-18T20:47:26.902Z,23.41
2023-08-18T20:49:53.612Z,23.40
2023-08-18T20:52:20.246Z,23.40
2023-08-18T20:54:49.150Z,23.37
2023-08-18T20:57:15.924Z,23.35
2023-08-18T20:59:42.623Z,23.34
2023-08-18T21:02:09.283Z,23.33
2023-08-18T21:04:38.972Z,23.32
2023-08-18T21:07:05.705Z,23.31
2023-08-18T21:09:37.651Z,23.30
2023-08-18T21:12:04.537Z,23.29
2023-08-18T21:14:31.205Z,23.29
2023-08-18T21:16:57.902Z,23.26
2023-08-18T21:19:24.641Z,23.25
2023-08-18T21:21:51.490Z,23.24
2023-08-18T21:24:18.278Z,23.24
2023-08-18T21:26:44.908Z,23.23
2023-08-18T21:29:11.809Z,23.22
2023-08-18T21:31:38.496Z,23.22
2023-08-18T21:34:05.182Z,23.21
2023-08-18T21:36:31.772Z,23.18
2023-08-18T21:39:06.075Z,23.16
2023-08-18T21:41:33.484Z,23.16
2023-08-18T21:44:00.942Z,23.14
2023-08-18T21:46:27.680Z,23.14
2023-08-18T21:48:56.623Z,23.14
2023-08-18T21:51:23.518Z,23.15
2023-08-18T21:53:50.182Z,23.14
2023-08-18T21:56:16.914Z,23.13
2023-08-18T21:58:43.529Z,23.14
2023-08-18T22:01:10.889Z,23.13
2023-08-18T22:03:37.571Z,23.12
2023-08-18T22:06:05.525Z,23.11
2023-08-18T22:08:32.197Z,23.11
2023-08-18T22:10:58.938Z,23.11
2023-08-18T22:13:27.965Z,23.10
2023-08-18T22:15:57.183Z,23.10
2023-08-18T22:18:23.827Z,23.09
2023-08-18T22:20:52.677Z,23.10
2023-08-18T22:23:19.287Z,23.08
2023-08-18T22:25:48.904Z,23.07
2023-08-18T22:28:15.567Z,23.07
2023-08-18T22:30:45.152Z,23.06
2023-08-18T22:33:14.124Z,23.06
2023-08-18T22:35:43.106Z,23.05
2023-08-18T22:38:09.838Z,23.02
2023-08-18T22:40:38.959Z,22.99
2023-08-18T22:43:07.889Z,22.95
2023-08-18T22:45:37.018Z,22.93
2023-08-18T22:48:29.213Z,22.90
2023-08-18T22:50:58.066Z,22.88
2023-08-18T22:53:25.317Z,22.85
2023-08-18T22:55:51.948Z,22.83
2023-08-18T22:58:18.594Z,22.81
2023-08-18T23:00:45.212Z,22.81
2023-08-18T23:03:11.915Z,22.80
2023-08-18T23:05:41.855Z,22.79
2023-08-18T23:08:10.645Z,22.78
2023-08-18T23:10:37.435Z,22.77
2023-08-18T23:13:04.271Z,22.77
2023-08-18T23:15:32.320Z,22.76
2023-08-18T23:17:59.198Z,22.74
2023-08-18T23:20:25.989Z,22.73
2023-08-18T23:22:52.598Z,22.72
2023-08-18T23:25:20.594Z,22.69
2023-08-18T23:27:49.562Z,22.68
2023-08-18T23:30:19.328Z,22.66
2023-08-18T23:32:46.469Z,22.65
2023-08-18T23:35:13.069Z,22.62
2023-08-18T23:37:39.659Z,22.61
2023-08-18T23:40:08.325Z,22.61
2023-08-18T23:42:34.950Z,22.61
2023-08-18T23:45:01.592Z,22.60
2023-08-18T23:47:28.322Z,22.58
2023-08-18T23:49:54.930Z,22.54
2023-08-18T23:52:21.603Z,22.51
2023-08-18T23:54:48.237Z,22.51
2023-08-18T23:57:14.877Z,22.49
2023-08-18T23:59:41.997Z,22.47
